createdAt,value
2019-03-11T00:00:35.075Z,99.90
2019-03-11T00:03:05.052Z,99.90
2019-03-11T00:05:34.822Z,99.90
2019-03-11T00:08:04.464Z,99.90
2019-03-11T00:10:34.300Z,99.90
2019-03-11T00:13:04.667Z,99.90
2019-03-11T00:15:34.328Z,99.90
2019-03-11T00:18:03.989Z,99.90
2019-03-11T00:20:33.528Z,99.90
2019-03-11T00:23:03.057Z,99.90
2019-03-11T00:25:32.907Z,99.90
2019-03-11T00:28:02.355Z,99.90
2019-03-11T00:30:32.124Z,99.90
2019-03-11T00:33:01.535Z,99.90
2019-03-11T00:35:31.300Z,99.90
2019-03-11T00:38:00.739Z,99.90
2019-03-11T00:40:30.159Z,99.90
2019-03-11T00:42:59.927Z,99.90
2019-03-11T00:45:29.739Z,99.90
2019-03-11T00:48:02.405Z,99.90
2019-03-11T00:50:30.671Z,99.90
2019-03-11T00:53:00.360Z,99.90
2019-03-11T00:55:29.771Z,99.90
2019-03-11T00:57:59.515Z,99.90
2019-03-11T01:00:32.049Z,99.90
2019-03-11T01:03:01.612Z,99.90
2019-03-11T01:05:31.094Z,99.90
2019-03-11T01:08:01.023Z,99.90
2019-03-11T01:10:30.570Z,99.90
2019-03-11T01:12:59.990Z,99.90
2019-03-11T01:15:29.848Z,99.90
2019-03-11T01:17:59.339Z,99.90
2019-03-11T01:20:28.762Z,99.90
2019-03-11T01:22:58.428Z,99.90
2019-03-11T01:25:27.932Z,99.90
2019-03-11T01:27:57.420Z,99.90
2019-03-11T01:30:27.392Z,99.90
2019-03-11T01:32:56.883Z,99.90
2019-03-11T01:35:26.309Z,99.90
2019-03-11T01:37:55.819Z,99.90
2019-03-11T01:40:25.535Z,99.90
2019-03-11T01:42:54.995Z,99.90
2019-03-11T01:45:24.727Z,99.90
2019-03-11T01:47:54.142Z,99.90
2019-03-11T01:50:23.869Z,99.90
2019-03-11T01:52:53.814Z,99.90
2019-03-11T01:55:23.681Z,99.90
2019-03-11T01:57:53.094Z,99.90
2019-03-11T02:00:22.607Z,99.90
2019-03-11T02:02:52.023Z,99.90
2019-03-11T02:05:21.443Z,99.90
2019-03-11T02:07:51.232Z,99.90
2019-03-11T02:10:21.731Z,99.90
2019-03-11T02:12:51.220Z,99.90
2019-03-11T02:15:20.907Z,99.90
2019-03-11T02:17:50.400Z,99.90
2019-03-11T02:20:19.887Z,99.90
2019-03-11T02:22:49.547Z,99.90
2019-03-11T02:25:19.378Z,99.90
2019-03-11T02:27:48.805Z,99.90
2019-03-11T02:30:18.664Z,99.90
2019-03-11T02:32:48.412Z,99.90
2019-03-11T02:35:31.609Z,99.90
2019-03-11T02:38:01.091Z,99.90
2019-03-11T02:40:30.648Z,99.90
2019-03-11T02:43:00.171Z,99.90
2019-03-11T02:45:29.971Z,99.90
2019-03-11T02:47:59.543Z,99.90
2019-03-11T02:50:29.522Z,99.90
2019-03-11T02:52:59.011Z,99.90
2019-03-11T02:55:28.435Z,99.90
2019-03-11T02:57:58.031Z,99.90
2019-03-11T03:00:27.521Z,99.90
2019-03-11T03:03:10.574Z,99.90
2019-03-11T03:05:44.534Z,99.90
2019-03-11T03:08:14.360Z,99.90
2019-03-11T03:10:48.457Z,99.90
2019-03-11T03:13:18.312Z,99.90
2019-03-11T03:15:47.725Z,99.90
2019-03-11T03:18:17.662Z,99.90
2019-03-11T03:20:47.125Z,99.90
2019-03-11T03:23:16.566Z,99.90
2019-03-11T03:25:46.099Z,99.90
2019-03-11T03:28:15.527Z,99.90
2019-03-11T03:30:45.017Z,99.90
2019-03-11T03:33:14.558Z,99.90
2019-03-11T03:35:44.075Z,99.90
2019-03-11T03:38:28.871Z,99.90
2019-03-11T03:40:47.897Z,99.90
2019-03-11T03:43:17.388Z,99.90
2019-03-11T03:45:47.117Z,99.90
2019-03-11T03:48:16.686Z,99.90
2019-03-11T03:50:46.336Z,99.90
2019-03-11T03:53:15.753Z,99.90
2019-03-11T03:55:45.314Z,99.90
2019-03-11T03:58:14.810Z,99.90
2019-03-11T04:00:44.319Z,99.90
2019-03-11T04:03:13.992Z,99.90
2019-03-11T04:05:43.884Z,99.90
2019-03-11T04:08:13.447Z,99.90
2019-03-11T04:10:43.023Z,99.90
2019-03-11T04:13:13.392Z,99.90
2019-03-11T04:15:42.963Z,99.90
2019-03-11T04:18:12.919Z,99.90
2019-03-11T04:20:42.492Z,99.90
2019-03-11T04:23:12.539Z,99.90
2019-03-11T04:25:42.322Z,99.90
2019-03-11T04:28:12.368Z,99.90
2019-03-11T04:30:41.936Z,99.90
2019-03-11T04:33:11.619Z,99.90
2019-03-11T04:35:41.507Z,99.90
2019-03-11T04:38:11.035Z,99.90
2019-03-11T04:40:40.728Z,99.90
2019-03-11T04:43:10.155Z,99.90
2019-03-11T04:45:40.237Z,99.90
2019-03-11T04:48:10.010Z,99.90
2019-03-11T04:50:39.771Z,98.10
2019-03-11T04:53:09.509Z,96.80
2019-03-11T04:55:39.143Z,99.90
2019-03-11T04:58:08.562Z,97.40
2019-03-11T05:00:38.504Z,93.10
2019-03-11T05:03:08.284Z,92.40
2019-03-11T05:05:37.706Z,91.40
2019-03-11T05:08:07.632Z,97.50
2019-03-11T05:10:37.403Z,90.30
2019-03-11T05:13:06.895Z,87.10
2019-03-11T05:15:36.704Z,86.40
2019-03-11T05:18:06.488Z,92.20
2019-03-11T05:20:35.987Z,84.50
2019-03-11T05:23:05.482Z,88.30
2019-03-11T05:25:35.066Z,88.20
2019-03-11T05:28:04.907Z,90.80
2019-03-11T05:30:34.467Z,91.10
2019-03-11T05:33:04.180Z,84.20
2019-03-11T05:35:34.039Z,85.90
2019-03-11T05:38:03.456Z,86.30
2019-03-11T05:40:32.899Z,84.80
2019-03-11T05:43:02.660Z,80.60
2019-03-11T05:45:32.078Z,80.10
2019-03-11T05:48:01.530Z,77.80
2019-03-11T05:50:30.951Z,79.40
2019-03-11T05:53:00.438Z,80.00
2019-03-11T05:55:30.713Z,99.90
2019-03-11T05:58:00.389Z,99.90
2019-03-11T06:00:31.864Z,99.90
2019-03-11T06:03:01.564Z,99.90
2019-03-11T06:05:31.143Z,99.90
2019-03-11T06:08:00.899Z,99.90
2019-03-11T06:10:30.834Z,99.90
2019-03-11T06:13:00.619Z,99.90
2019-03-11T06:15:30.146Z,99.60
2019-03-11T06:18:00.551Z,94.60
2019-03-11T06:20:37.407Z,93.80
2019-03-11T06:23:08.987Z,92.30
2019-03-11T06:25:38.703Z,99.90
2019-03-11T06:28:08.214Z,99.90
2019-03-11T06:30:38.319Z,99.90
2019-03-11T06:33:07.753Z,99.90
2019-03-11T06:35:37.179Z,99.90
2019-03-11T06:38:07.200Z,99.90
2019-03-11T06:40:36.628Z,99.90
2019-03-11T06:43:06.467Z,99.90
2019-03-11T06:45:35.928Z,99.90
2019-03-11T06:48:05.363Z,99.90
2019-03-11T06:50:34.938Z,99.90
2019-03-11T06:53:04.467Z,99.90
2019-03-11T06:55:34.195Z,99.90
2019-03-11T06:58:04.012Z,99.90
2019-03-11T07:00:33.985Z,99.90
2019-03-11T07:03:03.683Z,99.90
2019-03-11T07:05:33.173Z,99.90
2019-03-11T07:08:02.666Z,99.90
2019-03-11T07:10:32.664Z,99.90
2019-03-11T07:13:02.101Z,99.90
2019-03-11T07:15:31.636Z,99.90
2019-03-11T07:18:01.800Z,99.90
2019-03-11T07:20:31.711Z,99.90
2019-03-11T07:23:01.223Z,99.90
2019-03-11T07:25:30.684Z,99.90
2019-03-11T07:28:00.235Z,99.90
2019-03-11T07:30:29.779Z,99.90
2019-03-11T07:32:59.479Z,99.90
2019-03-11T07:35:29.055Z,99.90
2019-03-11T07:37:58.531Z,99.90
2019-03-11T07:40:30.094Z,99.90
2019-03-11T07:42:59.439Z,99.90
2019-03-11T07:45:29.083Z,99.90
2019-03-11T07:47:58.527Z,99.90
2019-03-11T07:50:28.046Z,99.90
2019-03-11T07:52:57.664Z,99.90
2019-03-11T07:55:27.358Z,99.90
2019-03-11T07:57:57.019Z,99.90
2019-03-11T08:00:26.875Z,99.90
2019-03-11T08:02:56.391Z,99.90
2019-03-11T08:05:25.899Z,99.90
2019-03-11T08:07:58.752Z,99.90
2019-03-11T08:10:28.591Z,99.90
2019-03-11T08:12:58.404Z,99.90
2019-03-11T08:15:28.013Z,99.90
2019-03-11T08:17:57.614Z,99.90
2019-03-11T08:20:27.193Z,99.90
2019-03-11T08:22:57.679Z,99.90
2019-03-11T08:25:27.576Z,99.90
2019-03-11T08:27:57.027Z,99.90
2019-03-11T08:30:27.297Z,99.90
2019-03-11T08:32:56.802Z,99.90
2019-03-11T08:35:26.314Z,99.90
2019-03-11T08:37:56.120Z,99.90
2019-03-11T08:40:25.560Z,99.90
2019-03-11T08:42:54.999Z,99.90
2019-03-11T08:45:24.608Z,99.90
2019-03-11T08:48:13.380Z,99.90
2019-03-11T08:50:43.158Z,99.90
2019-03-11T08:53:12.675Z,99.90
2019-03-11T08:55:42.120Z,99.10
2019-03-11T08:58:11.987Z,97.30
2019-03-11T09:00:41.563Z,99.30
2019-03-11T09:03:11.058Z,93.90
2019-03-11T09:05:40.540Z,87.90
2019-03-11T09:08:10.138Z,90.50
2019-03-11T09:10:39.637Z,81.20
2019-03-11T09:13:09.318Z,74.70
2019-03-11T09:15:39.080Z,70.90
2019-03-11T09:18:08.596Z,69.30
2019-03-11T09:20:38.408Z,64.90
2019-03-11T09:23:07.913Z,64.30
2019-03-11T09:25:37.921Z,64.20
2019-03-11T09:28:07.450Z,62.90
2019-03-11T09:30:36.885Z,63.70
2019-03-11T09:33:08.341Z,62.80
2019-03-11T09:35:37.953Z,62.30
2019-03-11T09:38:07.436Z,61.10
2019-03-11T09:40:37.084Z,60.80
2019-03-11T09:43:07.019Z,60.90
2019-03-11T09:45:36.940Z,59.90
2019-03-11T09:48:06.440Z,58.40
2019-03-11T09:50:36.251Z,58.70
2019-03-11T09:53:06.118Z,57.60
2019-03-11T09:55:35.558Z,57.50
2019-03-11T09:58:05.642Z,57.80
2019-03-11T10:00:36.324Z,58.10
2019-03-11T10:03:06.096Z,58.20
2019-03-11T10:05:35.567Z,57.40
2019-03-11T10:08:05.203Z,58.80
2019-03-11T10:10:34.861Z,57.10
2019-03-11T10:13:04.464Z,55.10
2019-03-11T10:15:33.956Z,53.90
2019-03-11T10:18:03.523Z,53.50
2019-03-11T10:20:33.345Z,53.80
2019-03-11T10:23:02.834Z,54.40
2019-03-11T10:25:32.335Z,56.20
2019-03-11T10:28:03.093Z,57.00
2019-03-11T10:30:32.615Z,58.20
2019-03-11T10:33:02.104Z,59.20
2019-03-11T10:35:32.905Z,60.80
2019-03-11T10:38:03.019Z,61.20
2019-03-11T10:40:33.490Z,61.50
2019-03-11T10:43:03.872Z,62.40
2019-03-11T10:45:33.291Z,62.60
2019-03-11T10:48:03.157Z,62.50
2019-03-11T10:50:32.606Z,64.50
2019-03-11T10:53:02.099Z,64.00
2019-03-11T10:55:31.855Z,63.20
2019-03-11T10:58:01.774Z,58.60
2019-03-11T11:00:33.275Z,58.80
2019-03-11T11:03:03.595Z,59.30
2019-03-11T11:05:33.352Z,60.10
2019-03-11T11:08:02.834Z,55.40
2019-03-11T11:10:32.277Z,56.40
2019-03-11T11:13:01.931Z,57.90
2019-03-11T11:15:32.978Z,61.70
2019-03-11T11:18:02.777Z,66.00
2019-03-11T11:20:32.704Z,73.70
2019-03-11T11:23:02.620Z,75.90
2019-03-11T11:25:32.553Z,71.70
2019-03-11T11:28:02.298Z,61.40
2019-03-11T11:30:32.786Z,55.00
2019-03-11T11:33:02.899Z,50.70
2019-03-11T11:35:32.350Z,50.50
2019-03-11T11:38:01.927Z,50.80
2019-03-11T11:40:32.227Z,48.60
2019-03-11T11:43:01.732Z,49.70
2019-03-11T11:45:32.905Z,53.60
2019-03-11T11:48:02.403Z,56.30
2019-03-11T11:50:32.154Z,56.60
2019-03-11T11:53:01.739Z,56.60
2019-03-11T11:55:31.580Z,55.60
2019-03-11T11:58:01.128Z,52.40
2019-03-11T12:00:33.438Z,47.40
2019-03-11T12:03:03.314Z,46.10
2019-03-11T12:05:33.487Z,50.80
2019-03-11T12:08:03.436Z,50.00
2019-03-11T12:10:35.962Z,50.00
2019-03-11T12:13:05.607Z,51.50
2019-03-11T12:15:35.103Z,52.80
2019-03-11T12:18:05.164Z,55.10
2019-03-11T12:20:34.826Z,78.60
2019-03-11T12:23:04.590Z,99.90
2019-03-11T12:25:34.222Z,98.30
2019-03-11T12:28:04.003Z,84.00
2019-03-11T12:30:34.751Z,66.00
2019-03-11T12:33:04.774Z,54.60
2019-03-11T12:35:34.370Z,51.50
2019-03-11T12:38:03.949Z,48.00
2019-03-11T12:40:33.467Z,46.80
2019-03-11T12:43:03.688Z,46.90
2019-03-11T12:45:33.252Z,48.70
2019-03-11T12:48:03.107Z,47.80
2019-03-11T12:50:33.580Z,46.40
2019-03-11T12:53:03.159Z,45.30
2019-03-11T12:55:32.754Z,45.20
2019-03-11T12:58:02.225Z,46.80
2019-03-11T13:00:31.975Z,52.00
2019-03-11T13:03:01.484Z,53.20
2019-03-11T13:05:31.316Z,55.20
2019-03-11T13:08:00.860Z,57.40
2019-03-11T13:10:33.787Z,56.70
2019-03-11T13:13:03.667Z,56.40
2019-03-11T13:15:33.299Z,99.90
2019-03-11T13:18:25.212Z,68.60
2019-03-11T13:20:54.650Z,70.70
2019-03-11T13:23:24.064Z,90.50
2019-03-11T13:25:53.798Z,99.90
2019-03-11T13:28:23.567Z,91.00
2019-03-11T13:30:53.298Z,83.10
2019-03-11T13:33:22.784Z,66.60
2019-03-11T13:35:52.527Z,65.70
2019-03-11T13:38:22.149Z,69.60
2019-03-11T13:40:51.875Z,66.80
2019-03-11T13:43:24.593Z,64.00
2019-03-11T13:45:54.494Z,63.20
2019-03-11T13:48:24.283Z,68.60
2019-03-11T13:50:54.131Z,67.10
2019-03-11T13:53:24.127Z,68.40
2019-03-11T13:55:53.575Z,65.20
2019-03-11T13:58:23.220Z,68.30
2019-03-11T14:00:56.795Z,70.40
2019-03-11T14:03:23.834Z,99.90
2019-03-11T14:05:53.343Z,99.90
2019-03-11T14:08:22.824Z,83.30
2019-03-11T14:10:53.503Z,71.80
2019-03-11T14:13:23.091Z,62.90
2019-03-11T14:15:52.879Z,58.10
2019-03-11T14:18:22.397Z,57.80
2019-03-11T14:20:51.863Z,58.70
2019-03-11T14:23:21.459Z,59.30
2019-03-11T14:25:50.919Z,56.90
2019-03-11T14:28:20.419Z,58.30
2019-03-11T14:30:50.161Z,61.30
2019-03-11T14:33:20.344Z,61.70
2019-03-11T14:35:52.113Z,63.80
2019-03-11T14:38:21.279Z,57.20
2019-03-11T14:40:50.893Z,58.30
2019-03-11T14:43:21.150Z,54.00
2019-03-11T14:45:50.626Z,52.50
2019-03-11T14:48:20.339Z,50.10
2019-03-11T14:50:49.855Z,50.90
2019-03-11T14:53:19.587Z,50.50
2019-03-11T14:55:49.223Z,51.90
2019-03-11T14:58:28.729Z,53.40
2019-03-11T15:00:49.919Z,54.40
2019-03-11T15:03:19.552Z,54.90
2019-03-11T15:05:49.091Z,55.10
2019-03-11T15:08:18.595Z,55.80
2019-03-11T15:10:48.132Z,56.40
2019-03-11T15:13:17.792Z,64.70
2019-03-11T15:15:47.294Z,83.50
2019-03-11T15:18:17.246Z,96.30
2019-03-11T15:20:46.746Z,99.90
2019-03-11T15:23:20.696Z,99.90
2019-03-11T15:25:47.838Z,99.90
2019-03-11T15:28:18.160Z,99.90
2019-03-11T15:30:47.964Z,95.60
2019-03-11T15:33:17.427Z,97.90
2019-03-11T15:35:46.955Z,97.00
2019-03-11T15:38:16.420Z,90.40
2019-03-11T15:40:46.775Z,87.10
2019-03-11T15:43:16.526Z,91.50
2019-03-11T15:45:46.461Z,92.30
2019-03-11T15:48:16.027Z,92.60
2019-03-11T15:50:45.620Z,91.30
2019-03-11T15:53:15.101Z,90.80
2019-03-11T15:55:44.874Z,83.40
2019-03-11T15:58:15.187Z,76.80
2019-03-11T16:00:44.709Z,73.50
2019-03-11T16:03:14.659Z,62.80
2019-03-11T16:05:44.087Z,58.00
2019-03-11T16:08:13.526Z,52.60
2019-03-11T16:10:43.071Z,52.90
2019-03-11T16:13:12.571Z,56.60
2019-03-11T16:15:42.041Z,61.20
2019-03-11T16:18:11.579Z,65.00
2019-03-11T16:20:41.436Z,65.30
2019-03-11T16:23:11.036Z,65.90
2019-03-11T16:25:40.945Z,65.00
2019-03-11T16:28:10.423Z,65.40
2019-03-11T16:30:39.854Z,62.90
2019-03-11T16:33:09.332Z,59.90
2019-03-11T16:35:39.289Z,61.30
2019-03-11T16:38:08.727Z,64.20
2019-03-11T16:40:38.254Z,99.90
2019-03-11T16:43:08.122Z,99.90
2019-03-11T16:45:37.558Z,99.90
2019-03-11T16:48:07.127Z,99.90
2019-03-11T16:50:36.551Z,99.90
2019-03-11T16:53:06.151Z,99.90
2019-03-11T16:55:37.386Z,99.90
2019-03-11T16:58:07.501Z,99.90
2019-03-11T17:00:40.293Z,99.90
2019-03-11T17:03:10.239Z,99.90
2019-03-11T17:05:40.357Z,99.90
2019-03-11T17:08:10.412Z,99.90
2019-03-11T17:10:40.355Z,99.90
2019-03-11T17:13:09.867Z,99.90
2019-03-11T17:15:39.373Z,99.90
2019-03-11T17:18:09.178Z,99.90
2019-03-11T17:20:38.731Z,99.90
2019-03-11T17:23:10.571Z,99.90
2019-03-11T17:25:40.740Z,99.90
2019-03-11T17:28:10.629Z,99.90
2019-03-11T17:30:40.562Z,99.90
2019-03-11T17:33:10.552Z,99.90
2019-03-11T17:35:40.021Z,99.90
2019-03-11T17:38:09.750Z,99.90
2019-03-11T17:40:39.451Z,99.90
2019-03-11T17:43:28.457Z,99.90
2019-03-11T17:45:58.150Z,99.90
2019-03-11T17:48:27.583Z,99.90
2019-03-11T17:50:57.096Z,99.90
2019-03-11T17:53:26.610Z,99.90
2019-03-11T17:55:56.044Z,99.90
2019-03-11T17:58:25.635Z,99.90
2019-03-11T18:00:56.010Z,99.90
2019-03-11T18:03:25.899Z,99.90
2019-03-11T18:05:57.111Z,99.90
2019-03-11T18:08:26.829Z,99.90
2019-03-11T18:10:56.417Z,99.90
2019-03-11T18:13:25.935Z,99.90
2019-03-11T18:15:55.709Z,99.90
2019-03-11T18:18:32.657Z,99.90
2019-03-11T18:20:56.335Z,99.90
2019-03-11T18:23:26.169Z,99.90
2019-03-11T18:26:16.531Z,99.90
2019-03-11T18:28:46.440Z,99.90
2019-03-11T18:31:18.179Z,99.90
2019-03-11T18:33:47.864Z,99.90
2019-03-11T18:36:18.020Z,99.90
2019-03-11T18:38:47.540Z,99.90
2019-03-11T18:41:17.032Z,99.90
2019-03-11T18:43:47.164Z,99.90
2019-03-11T18:46:16.659Z,99.90
2019-03-11T18:48:46.457Z,99.90
2019-03-11T18:51:16.572Z,99.90
2019-03-11T18:53:46.145Z,99.90
2019-03-11T18:56:15.795Z,99.90
2019-03-11T18:58:45.311Z,99.90
2019-03-11T19:01:14.766Z,99.90
2019-03-11T19:03:44.329Z,99.90
2019-03-11T19:06:13.933Z,99.90
2019-03-11T19:08:43.684Z,98.50
2019-03-11T19:11:13.110Z,98.90
2019-03-11T19:13:42.747Z,97.70
2019-03-11T19:16:12.307Z,93.60
2019-03-11T19:18:44.679Z,91.80
2019-03-11T19:21:14.248Z,90.70
2019-03-11T19:23:44.023Z,89.30
2019-03-11T19:26:14.051Z,89.30
2019-03-11T19:28:44.106Z,80.30
2019-03-11T19:31:15.243Z,80.80
2019-03-11T19:33:44.703Z,81.20
2019-03-11T19:36:14.552Z,79.80
2019-03-11T19:38:44.028Z,78.30
2019-03-11T19:41:14.248Z,77.10
2019-03-11T19:43:49.756Z,74.00
2019-03-11T19:46:19.616Z,76.60
2019-03-11T19:48:49.126Z,71.80
2019-03-11T19:51:18.883Z,71.50
2019-03-11T19:54:07.720Z,70.80
2019-03-11T19:56:37.402Z,71.90
2019-03-11T19:59:07.007Z,74.70
2019-03-11T20:01:36.551Z,74.10
2019-03-11T20:04:06.255Z,75.60
2019-03-11T20:06:36.107Z,72.60
2019-03-11T20:09:09.483Z,74.80
2019-03-11T20:11:39.070Z,71.70
2019-03-11T20:14:08.573Z,73.40
2019-03-11T20:16:38.138Z,74.00
2019-03-11T20:19:08.195Z,75.10
2019-03-11T20:21:37.811Z,79.40
2019-03-11T20:24:07.547Z,81.40
2019-03-11T20:26:38.258Z,83.70
2019-03-11T20:29:07.995Z,85.00
2019-03-11T20:31:37.908Z,84.70
2019-03-11T20:34:07.435Z,88.90
2019-03-11T20:36:37.102Z,97.30
2019-03-11T20:39:07.836Z,99.90
2019-03-11T20:41:37.942Z,99.90
2019-03-11T20:44:07.412Z,99.90
2019-03-11T20:46:37.171Z,99.90
2019-03-11T20:49:07.449Z,99.90
2019-03-11T20:51:36.930Z,99.90
2019-03-11T20:54:25.771Z,99.90
2019-03-11T20:56:55.448Z,99.90
2019-03-11T20:59:24.984Z,99.90
2019-03-11T21:01:55.339Z,99.90
2019-03-11T21:04:24.908Z,99.90
2019-03-11T21:06:54.428Z,99.90
2019-03-11T21:09:23.969Z,99.90
2019-03-11T21:11:54.732Z,99.90
2019-03-11T21:14:24.550Z,99.90
2019-03-11T21:16:54.224Z,99.90
2019-03-11T21:19:23.673Z,99.90
2019-03-11T21:21:53.168Z,99.90
2019-03-11T21:24:22.851Z,99.90
2019-03-11T21:26:52.329Z,99.90
2019-03-11T21:29:22.121Z,99.90
2019-03-11T21:31:52.102Z,99.90
2019-03-11T21:34:22.009Z,99.90
2019-03-11T21:36:51.532Z,99.90
2019-03-11T21:39:21.125Z,99.90
2019-03-11T21:41:50.859Z,99.90
2019-03-11T21:44:20.363Z,99.90
2019-03-11T21:46:50.595Z,99.70
2019-03-11T21:49:20.151Z,99.00
2019-03-11T21:51:49.790Z,98.50
2019-03-11T21:57:05.331Z,99.00
2019-03-11T21:59:34.890Z,99.10
2019-03-11T22:02:04.670Z,98.60
2019-03-11T22:04:34.444Z,98.20
2019-03-11T22:07:03.951Z,96.60
2019-03-11T22:09:33.375Z,97.80
2019-03-11T22:12:02.923Z,97.00
2019-03-11T22:14:32.464Z,96.70
2019-03-11T22:17:02.017Z,97.00
2019-03-11T22:19:31.549Z,94.70
2019-03-11T22:22:01.471Z,96.00
2019-03-11T22:24:31.457Z,95.70
2019-03-11T22:27:01.575Z,92.60
2019-03-11T22:29:31.106Z,92.40
2019-03-11T22:32:00.606Z,92.70
2019-03-11T22:34:30.066Z,92.50
2019-03-11T22:36:59.627Z,94.10
2019-03-11T22:39:29.160Z,93.80
2019-03-11T22:41:58.795Z,93.70
2019-03-11T22:44:28.316Z,93.50
2019-03-11T22:46:57.891Z,94.20
2019-03-11T22:49:27.695Z,93.80
2019-03-11T22:51:57.274Z,93.90
2019-03-11T22:54:26.923Z,94.10
2019-03-11T22:56:56.442Z,94.90
2019-03-11T22:59:25.880Z,97.70
2019-03-11T23:01:55.370Z,96.70
2019-03-11T23:04:24.895Z,96.70
2019-03-11T23:06:54.651Z,95.50
2019-03-11T23:09:24.157Z,94.80
2019-03-11T23:11:54.171Z,95.00
2019-03-11T23:14:23.662Z,95.90
2019-03-11T23:16:53.088Z,96.10
2019-03-11T23:19:22.546Z,96.10
2019-03-11T23:21:52.183Z,96.30
2019-03-11T23:24:21.611Z,96.40
2019-03-11T23:26:51.203Z,96.70
2019-03-11T23:29:20.704Z,96.10
2019-03-11T23:31:50.199Z,96.60
2019-03-11T23:34:20.323Z,96.70
2019-03-11T23:36:49.821Z,97.20
2019-03-11T23:39:19.252Z,97.70
2019-03-11T23:41:48.996Z,97.50
2019-03-11T23:44:18.430Z,98.20
2019-03-11T23:46:47.990Z,98.70
2019-03-11T23:49:17.533Z,98.20
2019-03-11T23:51:47.143Z,99.30
2019-03-11T23:54:16.646Z,98.60
2019-03-11T23:56:46.811Z,98.10
2019-03-11T23:59:16.234Z,98.40
